Fayetteville, AR (72702)

11:07 PM CDT on April 17, 2015 (GMT -0500)
Porter Road, Fayetteville | | Change Station
CLOSE
Current Station
Personal Weather Station
Location: Fayetteville, AR
Elevation: 1260 ft
Nearby Weather Stations
Active Advisory: Areal Flood Advisory

Elev 1260 ft 36.08 °N, 94.19 °W | Updated 4 seconds ago

Mostly Cloudy
Mostly Cloudy
64.2 °F
Feels Like 64.2 °F
N
0.0
Wind Variable Wind from SSW
Gusts 0.0 mph

Today
High -- | Low -- °F
--% Chance of Precip.
Yesterday
High -- | Low -- °F
Precip. -- in
6:41 AM 7:51 PM
Waning Crescent, 1% visible
Pressure 29.96 in
Visibility 10.0 miles
Clouds Clear
Dew Point 63 °F
Humidity 97%
Rainfall 0.25 in
Snow Depth Not available.
UV 0 out of 12
Pollen 9.30 out of 12
Air Quality Not available.
Flu Activity Sporadic
METAR KFYV 180353Z AUTO 00000KT 10SM CLR 17/16 A2998 RMK AO2 SLP145 T01670156

More Conditions Fewer Conditions

Pressure 29.96 in
Visibility 10.0 miles
Clouds Clear
Dew Point 63 °F
Humidity 97%
Rainfall 0.25 in
Snow Depth Not available.
UV 0 out of 12
Pollen 9.30 out of 12
Air Quality Not available.
Flu Activity Sporadic
METAR KFYV 180353Z AUTO 00000KT 10SM CLR 17/16 A2998 RMK AO2 SLP145 T01670156

More Conditions Fewer Conditions

10-Day Weather Forecast

Almanac

Astronomy

Apr. 17, 2015 Rise Set
Actual Time
Civil Twilight
Nautical Twilight
Astronomical Twilight
Moon
Length of Visible Light
Length of Day
Tomorrow will be .
, % of the Moon is Illuminated

Today's Extremes

State Highs State Lows

Community

WunderPhotos

Upload Photos

1,814,322 photos uploaded!

WunderBlogs® & News

Nearby

Air Quality

  Air Quality AQ Index Pollutant
Not available.

Snow Depth

Station Depth Elevation

Earthquake Activity

City Distance Mag. Time & Date
Minimum magnitude displayed is 2.5.

Coastal Water Temperatures

Place Temperature

Stations

Nearby Weather Stations

Station Location Temp. Windchill Dew Point Humidity Wind Precip. Elev Updated Type
                   
Areal Flood Advisory
Statement as of 8:31 PM CDT on April 17, 2015

The National Weather Service in Tulsa has issued an

* Urban and Small Stream Flood Advisory for...
eastern Benton County in northwest Arkansas...
northeastern Washington County in northwest Arkansas...

* until 1130 PM CDT

* at 828 PM CDT... Doppler radar indicated thunderstorms with very
heavy rain along a line extending from Miller to 4 miles northeast
of Sonora... moving northeast at 15 mph.

* Locations that will continue to be affected by heavy rain
include... Rogers... Bella Vista... War Eagle... Hobbs State Park...
Avoca... lookout... Pea Ridge... LaRue... Bland... Walnut Hill and Hill
Top.

Minor Road flooding was reported.

Do not drive your vehicle into areas where the water covers the
roadway. The water depth may be too great to allow your car to cross
safely. Vehicles caught in rising water should be abandoned quickly.
Move to higher ground.

Lat... Lon 3623 9389 3616 9392 3609 9410 3650 9442
      3651 9403 3627 9387 3624 9387